Dennis, MA

4:57 PM EDT on August 28, 2016 (GMT -0400)
7/10ths ml from Bayview beach | | Change Station

Elev 23 ft 41.74 °N, 70.21 °W | Updated 30 seconds ago

Clear
Clear
77.2 °F
Feels Like 79 °F
N
1.3
Wind Variable Wind from SSE
Gusts 2.5 mph

Today
High -- | Low -- °F
--% Chance of Precip.
Yesterday
High -- | Low -- °F
Precip. -- in
Pressure 30.22 in
Visibility 10.0 miles
Clouds Clear
Heat Index 79 °F
Dew Point 66 °F
Humidity 69%
Rainfall 0.00 in
Snow Depth Not available.
6:03 AM 7:19 PM
Waning Crescent, 13% visible
METAR KHYA 281956Z 11007KT 10SM CLR 25/15 A3022 RMK AO2 SLP234 T02500150 $
Pressure 30.22 in
Visibility 10.0 miles
Clouds Clear
Heat Index 79 °F
Dew Point 66 °F
Humidity 69%
Rainfall 0.00 in
Snow Depth Not available.
6:03 AM 7:19 PM
Waning Crescent, 13% visible
METAR KHYA 281956Z 11007KT 10SM CLR 25/15 A3022 RMK AO2 SLP234 T02500150 $

10-Day Weather Forecast

Almanac

Astronomy

Aug. 28, 2016 Rise Set
Actual Time
Civil Twilight
Nautical Twilight
Astronomical Twilight
Moon
Length of Visible Light
Length of Day
Tomorrow will be .
, % of the Moon is Illuminated

Today's Extremes

State Highs State Lows

Community

WunderPhotos

Upload Photos

1,935,689 photos uploaded!

WunderBlog® & News

Nearby

Air Quality

  Air Quality AQ Index Pollutant
Not available.

Snow Depth

Station Depth Elevation

Earthquake Activity

City Distance Mag. Time & Date
Minimum magnitude displayed is 2.5.

Coastal Water Temperatures

Place Temperature

Stations

Nearby Weather Stations

Station Location Temp. Windchill Dew Point Humidity Wind Precip. Elev Updated Type
                   

Watches & Warnings

There are currently no watches in effect.